Time;durP1;ratioP1;P1;durP2;ratioP2;P2;SDS_P1;SDS_P2;PMS_P1;PMS_P2;Temp;Humidity;BMP_temperature;BMP_pressure;BME280_temperature;BME280_humidity;BME280_pressure;Samples;Min_cycle;Max_cycle;Signal;HPM_P1;HPM_P2
2020/12/30 00:01:35;;;;;;;8.73;5.28;;;;;;;0.21;93.92;99192.66;4991651;28;20063;-60
2020/12/30 00:04:02;;;;;;;7.45;5.18;;;;;;;0.46;93.53;99187.34;5023042;28;20064;-57
2020/12/30 00:06:29;;;;;;;10.38;5.38;;;;;;;0.60;93.17;99191.13;5016484;28;20756;-56
2020/12/30 00:08:56;;;;;;;11.05;6.03;;;;;;;0.64;92.45;99193.50;5015889;28;20549;-58
2020/12/30 00:11:23;;;;;;;7.72;4.93;;;;;;;0.64;92.59;99201.28;5017129;28;20054;-59
2020/12/30 00:13:50;;;;;;;7.40;4.93;;;;;;;0.69;91.64;99198.50;5017723;28;20057;-59
2020/12/30 00:16:17;;;;;;;14.40;5.63;;;;;;;0.65;92.10;99207.31;5016445;28;20502;-57
2020/12/30 00:18:44;;;;;;;8.52;4.38;;;;;;;0.67;92.07;99201.13;5019483;28;20049;-60
2020/12/30 00:21:11;;;;;;;7.82;4.43;;;;;;;0.66;91.95;99196.88;5025371;28;20454;-61
2020/12/30 00:23:38;;;;;;;8.85;4.93;;;;;;;0.75;91.79;99193.91;5023995;28;20045;-56
2020/12/30 00:26:05;;;;;;;11.13;5.38;;;;;;;0.82;92.69;99197.09;5008024;28;20053;-56
2020/12/30 00:28:32;;;;;;;6.70;4.55;;;;;;;1.16;91.63;99201.66;5017982;28;20053;-60
2020/12/30 00:31:00;;;;;;;7.72;5.40;;;;;;;1.14;90.41;99194.88;5019878;28;20468;-58
2020/12/30 00:33:27;;;;;;;9.13;4.80;;;;;;;1.24;90.36;99196.16;5016171;28;20186;-57
2020/12/30 00:35:54;;;;;;;12.20;4.65;;;;;;;1.00;90.32;99209.25;5016862;28;20057;-61
2020/12/30 00:38:20;;;;;;;8.90;4.25;;;;;;;1.06;89.94;99209.91;5018808;28;20084;-59
2020/12/30 00:40:50;;;;;;;9.60;4.63;;;;;;;1.03;90.26;99208.28;5020523;28;20049;-58
2020/12/30 00:43:16;;;;;;;7.60;5.30;;;;;;;0.90;89.81;99210.56;5015184;28;20558;-60
2020/12/30 00:45:43;;;;;;;7.20;4.82;;;;;;;0.84;90.44;99205.63;5021339;28;20144;-57
2020/12/30 00:48:10;;;;;;;11.43;5.05;;;;;;;0.79;90.40;99207.56;5016969;28;20108;-59
2020/12/30 00:50:37;;;;;;;8.38;4.80;;;;;;;0.73;90.59;99202.66;5021177;28;20042;-57
2020/12/30 00:53:04;;;;;;;10.10;4.70;;;;;;;0.63;90.77;99206.50;5017905;28;20058;-57
2020/12/30 00:55:32;;;;;;;7.45;5.25;;;;;;;0.45;91.70;99210.69;5016651;28;20061;-58
2020/12/30 00:57:59;;;;;;;7.43;5.47;;;;;;;0.61;91.52;99205.75;5017280;28;20091;-61
2020/12/30 01:00:26;;;;;;;9.90;4.38;;;;;;;0.58;91.41;99211.03;5021182;28;20073;-59
2020/12/30 01:02:53;;;;;;;7.65;5.05;;;;;;;0.36;91.71;99214.50;5006827;28;20053;-61
2020/12/30 01:05:21;;;;;;;8.85;5.22;;;;;;;0.41;91.89;99222.94;5021144;28;20056;-59
2020/12/30 01:07:48;;;;;;;7.85;5.03;;;;;;;0.55;91.84;99218.94;4999331;28;20061;-60
2020/12/30 01:10:15;;;;;;;9.05;5.45;;;;;;;0.59;90.98;99221.34;4998081;28;20045;-58
2020/12/30 01:12:42;;;;;;;7.63;4.38;;;;;;;0.59;91.50;99229.13;5021061;28;20261;-58
2020/12/30 01:15:10;;;;;;;9.45;5.03;;;;;;;0.59;91.53;99230.88;5020462;28;20061;-57
2020/12/30 01:17:36;;;;;;;9.93;5.93;;;;;;;0.59;91.28;99226.53;5017536;28;20049;-60
2020/12/30 01:20:03;;;;;;;11.50;5.15;;;;;;;0.62;91.30;99230.72;5017364;28;20056;-59
2020/12/30 01:22:30;;;;;;;7.80;4.85;;;;;;;0.48;91.52;99231.28;5017411;28;20064;-59
2020/12/30 01:24:57;;;;;;;7.40;4.38;;;;;;;0.59;91.59;99228.28;5016020;28;20677;-62
2020/12/30 01:27:23;;;;;;;9.23;4.55;;;;;;;0.67;90.47;99236.56;5016818;28;20041;-56
2020/12/30 01:29:50;;;;;;;8.65;5.28;;;;;;;0.69;90.87;99233.00;5014078;28;20541;-55
2020/12/30 01:32:17;;;;;;;14.55;5.18;;;;;;;0.63;90.67;99227.22;5015949;28;20123;-59
2020/12/30 01:34:45;;;;;;;11.48;5.03;;;;;;;0.54;91.16;99231.06;5001867;28;20629;-57
2020/12/30 01:37:12;;;;;;;12.27;4.95;;;;;;;0.46;91.27;99236.53;5018307;28;20119;-60
2020/12/30 01:39:39;;;;;;;6.90;5.07;;;;;;;0.55;91.03;99226.72;4999448;28;20358;-58
2020/12/30 01:42:06;;;;;;;7.18;4.32;;;;;;;0.54;91.42;99238.81;5006524;28;20060;-59
2020/12/30 01:44:35;;;;;;;10.38;5.45;;;;;;;0.56;91.23;99243.94;5017984;28;20077;-58
2020/12/30 01:47:02;;;;;;;8.45;5.03;;;;;;;0.63;90.64;99235.00;5002494;28;20091;-60
2020/12/30 01:49:30;;;;;;;12.32;4.82;;;;;;;0.49;91.42;99241.56;5015266;28;20053;-59
2020/12/30 01:51:57;;;;;;;6.63;4.50;;;;;;;0.44;91.38;99240.91;5016737;28;20045;-56
2020/12/30 01:54:26;;;;;;;9.65;5.28;;;;;;;0.31;91.82;99229.34;5016968;28;20141;-56
2020/12/30 01:56:53;;;;;;;9.20;5.05;;;;;;;0.27;92.97;99234.72;5002945;28;20391;-55
2020/12/30 01:59:21;;;;;;;11.68;5.13;;;;;;;0.43;92.47;99233.22;5015317;28;20099;-58
2020/12/30 02:02:07;;;;;;;8.85;4.80;;;;;;;0.49;91.90;99240.72;5018504;28;20050;-59
2020/12/30 02:04:42;;;;;;;10.07;4.40;;;;;;;0.43;91.27;99241.81;5016391;28;20045;-54
2020/12/30 02:07:09;;;;;;;8.17;5.60;;;;;;;0.18;92.51;99241.09;5016403;28;20483;-60
2020/12/30 02:09:37;;;;;;;8.25;4.80;;;;;;;0.25;92.74;99243.38;5015970;28;20046;-55
2020/12/30 02:12:03;;;;;;;8.18;5.43;;;;;;;0.17;93.08;99242.84;5002344;28;20411;-59
2020/12/30 02:14:30;;;;;;;9.48;5.55;;;;;;;0.30;92.40;99244.97;5016149;28;20085;-58
2020/12/30 02:16:57;;;;;;;8.25;5.07;;;;;;;0.35;92.71;99254.22;5012384;28;20136;-55
2020/12/30 02:19:24;;;;;;;7.97;4.97;;;;;;;0.36;92.31;99255.06;4998783;28;20156;-59
2020/12/30 02:21:54;;;;;;;13.20;5.50;;;;;;;0.39;91.48;99253.19;5005426;28;20084;-57
2020/12/30 02:24:28;;;;;;;9.15;4.28;;;;;;;0.36;92.44;99255.06;5004583;28;20063;-58
2020/12/30 02:26:56;;;;;;;6.60;4.65;;;;;;;0.53;91.64;99255.25;4999669;28;20057;-60
2020/12/30 02:29:27;;;;;;;9.75;3.97;;;;;;;0.62;91.33;99254.88;5001144;28;20060;-58
2020/12/30 02:31:54;;;;;;;7.80;3.72;;;;;;;0.63;90.69;99255.72;5018478;28;20432;-60
2020/12/30 02:34:21;;;;;;;7.43;4.40;;;;;;;0.63;90.77;99259.16;5013966;28;20057;-60
2020/12/30 02:36:48;;;;;;;9.38;3.88;;;;;;;0.67;90.32;99259.88;5016597;28;20057;-57
2020/12/30 02:39:15;;;;;;;9.65;4.80;;;;;;;0.75;89.97;99250.88;5014201;28;20585;-56
2020/12/30 02:41:42;;;;;;;8.05;4.63;;;;;;;0.83;89.60;99258.34;4997704;28;20050;-60
2020/12/30 02:44:09;;;;;;;7.13;3.92;;;;;;;0.94;90.04;99256.13;5006711;28;20234;-57
2020/12/30 02:46:35;;;;;;;7.72;4.43;;;;;;;0.99;89.24;99261.13;4997719;28;20087;-57
2020/12/30 02:49:03;;;;;;;6.90;4.53;;;;;;;0.83;89.40;99260.94;5015380;28;20061;-56
2020/12/30 02:51:29;;;;;;;7.05;3.80;;;;;;;0.78;90.08;99262.03;5017509;28;20081;-59
2020/12/30 02:53:56;;;;;;;8.43;4.63;;;;;;;0.89;88.95;99265.84;5015903;28;20068;-61
2020/12/30 02:56:24;;;;;;;6.82;3.83;;;;;;;0.71;90.19;99269.19;5015368;28;20055;-60
2020/12/30 02:58:51;;;;;;;6.55;3.92;;;;;;;0.54;89.99;99269.03;5015322;28;20046;-59
2020/12/30 03:01:17;;;;;;;9.00;4.15;;;;;;;0.30;91.27;99269.09;5010510;28;20063;-57
2020/12/30 03:03:44;;;;;;;16.95;4.75;;;;;;;0.09;92.73;99267.31;5013810;28;20430;-58
2020/12/30 03:06:11;;;;;;;8.02;4.53;;;;;;;-0.01;93.04;99262.50;5001885;28;20057;-59
2020/12/30 03:08:39;;;;;;;8.20;4.95;;;;;;;0.14;92.88;99265.44;5004356;23;20072;-53
2020/12/30 03:11:07;;;;;;;6.93;4.20;;;;;;;0.09;92.64;99257.84;5017104;28;20054;-52
2020/12/30 03:13:34;;;;;;;8.05;4.78;;;;;;;-0.08;93.45;99270.56;5000530;28;20052;-55
2020/12/30 03:16:01;;;;;;;5.10;4.57;;;;;;;0.20;93.40;99265.19;5019136;28;20046;-49
2020/12/30 03:18:28;;;;;;;5.55;4.10;;;;;;;0.22;92.99;99266.78;5021830;28;20075;-58
2020/12/30 03:20:55;;;;;;;7.25;4.25;;;;;;;0.20;92.80;99268.59;5014688;28;20144;-56
2020/12/30 03:23:22;;;;;;;10.63;4.22;;;;;;;0.54;91.46;99272.50;5011378;28;20081;-57
2020/12/30 03:25:48;;;;;;;6.65;3.72;;;;;;;0.43;91.57;99267.72;5015573;28;20068;-52
2020/12/30 03:28:15;;;;;;;5.95;3.53;;;;;;;0.20;92.05;99272.94;5014015;28;20514;-54
2020/12/30 03:30:42;;;;;;;8.55;4.78;;;;;;;0.31;92.11;99264.75;5015105;28;20082;-53
2020/12/30 03:33:08;;;;;;;8.77;4.38;;;;;;;0.30;92.21;99269.09;5012924;28;20069;-51
2020/12/30 03:35:36;;;;;;;10.50;4.55;;;;;;;0.23;92.29;99265.06;5015961;28;20124;-53
2020/12/30 03:38:02;;;;;;;8.63;4.32;;;;;;;0.31;92.71;99268.19;5010910;28;20062;-54
2020/12/30 03:40:29;;;;;;;9.18;4.13;;;;;;;0.49;91.44;99264.03;5015531;28;20197;-57
2020/12/30 03:42:56;;;;;;;5.05;3.30;;;;;;;0.49;91.87;99259.69;5011169;28;20247;-50
2020/12/30 03:45:23;;;;;;;6.78;3.65;;;;;;;0.50;91.35;99264.00;5014641;28;20054;-55
2020/12/30 03:47:50;;;;;;;9.68;4.25;;;;;;;0.21;92.46;99267.69;5015689;28;20058;-54
2020/12/30 03:50:16;;;;;;;11.02;3.92;;;;;;;0.46;92.02;99256.41;5017242;28;20073;-56
2020/12/30 03:52:43;;;;;;;7.70;3.83;;;;;;;0.34;92.02;99267.22;5019114;28;20057;-58
2020/12/30 03:55:10;;;;;;;5.90;4.13;;;;;;;0.08;92.85;99271.66;5018467;28;20053;-56
2020/12/30 03:57:37;;;;;;;5.57;3.50;;;;;;;0.32;92.66;99267.31;5017243;28;20061;-53
2020/12/30 04:00:04;;;;;;;5.63;3.83;;;;;;;0.40;92.12;99261.81;5015992;28;20061;-55
2020/12/30 04:02:30;;;;;;;8.52;3.60;;;;;;;0.48;91.58;99263.19;4999775;28;20057;-53
2020/12/30 04:04:57;;;;;;;5.43;3.45;;;;;;;0.38;92.26;99268.81;5017207;28;20054;-57
2020/12/30 04:07:24;;;;;;;7.00;3.85;;;;;;;0.59;91.10;99262.78;5017612;28;20068;-54
2020/12/30 04:09:51;;;;;;;8.30;3.88;;;;;;;0.27;91.77;99266.63;5016555;28;20049;-52
2020/12/30 04:12:17;;;;;;;7.50;4.03;;;;;;;0.11;92.87;99265.53;5020820;28;20152;-52
2020/12/30 04:14:44;;;;;;;8.52;4.43;;;;;;;0.08;93.26;99271.66;5023334;28;20554;-55
2020/12/30 04:17:11;;;;;;;7.72;4.28;;;;;;;-0.10;94.03;99267.16;5017665;28;20053;-56
2020/12/30 04:19:38;;;;;;;6.93;4.45;;;;;;;0.03;94.04;99277.91;5020082;28;20050;-54
2020/12/30 04:22:05;;;;;;;7.32;4.47;;;;;;;-0.01;94.13;99285.78;5021465;28;20045;-60
2020/12/30 04:24:32;;;;;;;7.07;3.97;;;;;;;0.05;93.81;99286.47;5016599;28;20060;-55
2020/12/30 04:26:58;;;;;;;9.10;4.22;;;;;;;0.26;93.04;99285.63;5015956;28;20458;-58
2020/12/30 04:29:25;;;;;;;5.75;3.72;;;;;;;0.31;92.80;99275.94;5016547;28;20057;-56
2020/12/30 04:31:52;;;;;;;7.20;3.97;;;;;;;0.20;92.57;99286.72;5017006;28;20050;-59
2020/12/30 04:34:19;;;;;;;9.60;3.92;;;;;;;0.17;93.43;99289.41;5016331;28;20407;-56
2020/12/30 04:36:45;;;;;;;5.75;3.67;;;;;;;0.10;93.90;99284.56;5017890;28;20629;-55
2020/12/30 04:39:12;;;;;;;8.63;4.57;;;;;;;0.09;93.85;99295.78;5019090;28;21906;-52
2020/12/30 04:41:40;;;;;;;11.43;3.70;;;;;;;0.12;94.24;99295.66;5016739;28;20065;-54
2020/12/30 04:44:07;;;;;;;7.47;3.70;;;;;;;0.10;93.84;99295.75;4998343;28;20139;-55
2020/12/30 04:46:35;;;;;;;7.53;4.00;;;;;;;0.23;93.61;99296.97;5003004;28;20062;-55
2020/12/30 04:49:02;;;;;;;7.15;3.63;;;;;;;0.41;92.85;99294.59;5003327;28;20220;-55
2020/12/30 04:51:29;;;;;;;7.72;3.88;;;;;;;0.33;92.27;99305.22;5018704;28;20677;-56
2020/12/30 04:53:58;;;;;;;10.07;4.57;;;;;;;0.49;92.29;99290.75;5019912;28;20136;-55
2020/12/30 04:56:37;;;;;;;6.68;3.78;;;;;;;0.31;92.85;99304.41;5018405;28;20123;-53
2020/12/30 04:59:08;;;;;;;5.22;3.35;;;;;;;0.10;93.30;99308.69;5015384;28;20057;-51
2020/12/30 05:01:59;;;;;;;9.77;4.50;;;;;;;-0.13;94.00;99313.84;4999974;28;20188;-55
2020/12/30 05:04:26;;;;;;;6.95;4.55;;;;;;;-0.08;95.02;99311.94;5017519;28;20065;-56
2020/12/30 05:06:53;;;;;;;7.88;3.67;;;;;;;0.37;93.58;99309.38;5016752;28;20531;-56
2020/12/30 05:09:20;;;;;;;7.15;4.78;;;;;;;0.42;92.75;99322.16;4998628;28;20605;-57
2020/12/30 05:11:47;;;;;;;9.35;3.72;;;;;;;0.58;92.12;99323.22;5015760;28;20068;-53
2020/12/30 05:14:14;;;;;;;5.30;3.50;;;;;;;0.55;91.85;99325.13;5014353;28;20509;-55
2020/12/30 05:16:41;;;;;;;9.50;4.32;;;;;;;0.52;91.97;99330.41;5014202;28;20069;-52
2020/12/30 05:19:07;;;;;;;6.75;4.30;;;;;;;0.52;92.30;99333.81;5016556;28;20054;-54
2020/12/30 05:21:35;;;;;;;8.10;3.97;;;;;;;0.40;92.65;99337.72;5017421;28;20136;-53
2020/12/30 05:24:01;;;;;;;7.88;4.10;;;;;;;0.45;92.34;99341.00;5023868;28;20053;-51
2020/12/30 05:26:28;;;;;;;9.95;4.30;;;;;;;0.36;92.65;99343.06;5002698;28;20053;-50
2020/12/30 05:28:55;;;;;;;8.25;4.00;;;;;;;0.39;92.91;99348.16;5004182;28;20085;-55
2020/12/30 05:31:22;;;;;;;9.55;4.95;;;;;;;0.42;92.26;99345.44;5015458;28;20053;-52
2020/12/30 05:33:49;;;;;;;10.45;4.57;;;;;;;0.23;92.91;99347.88;5016641;28;20050;-52
2020/12/30 05:36:16;;;;;;;8.25;4.05;;;;;;;-0.06;93.85;99352.38;5013869;28;20153;-53
2020/12/30 05:38:44;;;;;;;7.28;4.47;;;;;;;-0.31;94.37;99356.72;5017686;28;20061;-54
2020/12/30 05:41:18;;;;;;;10.20;4.50;;;;;;;-0.32;95.00;99357.59;5017245;28;20048;-54
2020/12/30 05:43:45;;;;;;;9.38;4.38;;;;;;;-0.12;94.63;99350.00;5016891;28;20057;-52
2020/12/30 05:46:24;;;;;;;8.88;4.82;;;;;;;-0.08;94.45;99354.19;5013986;28;20056;-55
2020/12/30 05:48:52;;;;;;;8.77;4.03;;;;;;;-0.22;95.21;99351.25;5017548;28;20057;-48
2020/12/30 05:51:27;;;;;;;10.13;4.70;;;;;;;-0.44;95.46;99365.81;5015978;28;20053;-53
2020/12/30 05:54:10;;;;;;;6.43;4.82;;;;;;;-0.62;96.32;99359.53;5016465;28;20115;-54
2020/12/30 05:56:38;;;;;;;11.80;4.97;;;;;;;-0.23;95.96;99365.03;5006709;28;20048;-55
2020/12/30 05:59:05;;;;;;;8.05;5.07;;;;;;;-0.14;95.29;99371.63;5015586;28;20136;-54
2020/12/30 06:01:36;;;;;;;6.43;4.28;;;;;;;-0.02;94.79;99373.81;5015698;28;20061;-52
2020/12/30 06:04:19;;;;;;;9.70;4.97;;;;;;;0.01;94.48;99372.88;5013749;28;20359;-55
2020/12/30 06:06:47;;;;;;;15.60;4.90;;;;;;;-0.09;94.42;99383.53;5014128;28;20426;-54
2020/12/30 06:09:18;;;;;;;9.55;5.00;;;;;;;-0.12;95.14;99386.22;5011991;28;20053;-56
2020/12/30 06:11:52;;;;;;;9.07;4.22;;;;;;;-0.31;95.33;99388.59;5014219;28;20061;-52
2020/12/30 06:14:20;;;;;;;8.07;4.38;;;;;;;-0.48;95.96;99392.66;5007515;28;20141;-51
2020/12/30 06:16:47;;;;;;;6.82;4.93;;;;;;;-0.35;96.09;99389.59;5012506;28;20041;-55
2020/12/30 06:19:15;;;;;;;11.35;6.07;;;;;;;-0.46;96.87;99396.88;5014294;28;20054;-53
2020/12/30 06:21:44;;;;;;;9.73;4.85;;;;;;;-0.65;97.15;99406.97;5014827;28;20809;-56
2020/12/30 06:24:13;;;;;;;8.45;5.20;;;;;;;-0.82;97.13;99419.59;5013896;28;20145;-54
2020/12/30 06:26:41;;;;;;;10.88;4.80;;;;;;;-0.97;98.03;99415.75;5005177;28;20423;-56
2020/12/30 06:29:15;;;;;;;10.32;5.13;;;;;;;-0.99;98.38;99430.47;5016156;28;20200;-57
2020/12/30 06:31:45;;;;;;;8.23;5.28;;;;;;;-0.82;98.62;99423.00;5015516;28;20052;-53
2020/12/30 06:34:12;;;;;;;9.23;5.18;;;;;;;-0.45;98.14;99426.16;5013723;28;20075;-53
2020/12/30 06:36:41;;;;;;;9.68;5.15;;;;;;;-0.48;97.18;99428.84;5013516;28;20586;-55
2020/12/30 06:39:22;;;;;;;10.68;5.25;;;;;;;-0.58;97.85;99441.25;5013443;28;20137;-53
2020/12/30 06:42:03;;;;;;;7.68;4.95;;;;;;;-0.79;97.57;99437.59;5014683;28;20053;-55
2020/12/30 06:44:50;;;;;;;11.70;5.85;;;;;;;-0.99;98.25;99442.53;5019006;28;20053;-51
2020/12/30 06:47:17;;;;;;;9.45;5.90;;;;;;;-1.09;98.81;99450.53;5020796;28;20077;-53
2020/12/30 06:49:44;;;;;;;9.05;5.90;;;;;;;-1.07;99.27;99458.28;5005993;28;20458;-56
2020/12/30 06:52:25;;;;;;;11.48;5.60;;;;;;;-1.22;99.24;99454.38;5020661;28;20057;-54
2020/12/30 06:54:51;;;;;;;11.95;6.03;;;;;;;-1.27;99.84;99458.84;5015059;28;20112;-56
2020/12/30 06:57:40;;;;;;;11.65;6.18;;;;;;;-1.05;99.63;99469.38;5020882;28;20046;-50
2020/12/30 07:00:26;;;;;;;8.68;5.45;;;;;;;-0.79;99.06;99468.59;5017716;28;20088;-52
2020/12/30 07:03:34;;;;;;;11.32;5.95;;;;;;;-0.83;98.73;99464.41;5021172;28;20057;-53
2020/12/30 07:06:28;;;;;;;11.02;5.22;;;;;;;-1.12;99.14;99466.16;4984306;28;20132;-51
2020/12/30 07:09:00;;;;;;;13.65;6.13;;;;;;;-1.23;99.52;99470.78;4983310;28;20056;-56
2020/12/30 07:11:44;;;;;;;13.02;6.32;;;;;;;-1.30;99.92;99475.28;4989872;28;20068;-57
2020/12/30 07:14:25;;;;;;;14.88;6.57;;;;;;;-1.38;99.88;99474.66;5023187;28;20498;-53
2020/12/30 07:16:56;;;;;;;10.88;6.90;;;;;;;-1.22;100.00;99472.47;5021479;28;20080;-55
2020/12/30 07:19:25;;;;;;;9.98;7.03;;;;;;;-1.18;100.00;99474.06;5001426;28;20044;-55
2020/12/30 07:22:02;;;;;;;10.98;6.57;;;;;;;-1.24;100.00;99474.25;5019698;28;20050;-55
2020/12/30 07:24:40;;;;;;;15.63;7.60;;;;;;;-1.29;100.00;99474.41;5006037;28;20068;-54
2020/12/30 07:27:11;;;;;;;11.68;6.88;;;;;;;-1.00;100.00;99483.00;5010803;28;20046;-55
2020/12/30 07:29:48;;;;;;;12.48;6.75;;;;;;;-0.91;99.74;99484.47;5025053;28;20449;-53
2020/12/30 07:32:18;;;;;;;15.77;8.55;;;;;;;-0.80;98.95;99483.25;5022015;28;20082;-60
2020/12/30 07:34:52;;;;;;;11.65;7.30;;;;;;;-0.85;99.38;99477.38;5022715;28;20582;-56
2020/12/30 07:37:20;;;;;;;12.35;6.93;;;;;;;-0.87;99.27;99492.06;5027266;28;20129;-54
2020/12/30 07:39:48;;;;;;;16.33;7.05;;;;;;;-0.70;98.65;99486.41;5008655;28;20057;-56
2020/12/30 07:42:16;;;;;;;11.27;6.65;;;;;;;-0.74;98.30;99489.97;5028715;28;20042;-56
2020/12/30 07:44:47;;;;;;;11.95;6.57;;;;;;;-0.67;98.17;99503.56;5024529;28;20136;-55
2020/12/30 07:47:16;;;;;;;16.92;6.55;;;;;;;-0.70;98.52;99509.66;5011800;28;20509;-54
2020/12/30 07:49:43;;;;;;;11.77;6.07;;;;;;;-0.62;97.95;99499.94;4995187;28;20049;-56
2020/12/30 07:52:10;;;;;;;12.40;6.65;;;;;;;-0.71;98.26;99499.38;5023004;28;20136;-58
2020/12/30 07:54:38;;;;;;;15.35;7.13;;;;;;;-0.68;98.18;99507.84;5026474;28;20077;-55
2020/12/30 07:57:12;;;;;;;11.85;6.93;;;;;;;-0.61;98.25;99509.38;5026132;28;20814;-54
2020/12/30 07:59:41;;;;;;;13.40;8.05;;;;;;;-0.39;97.53;99506.97;5026092;28;20084;-53
2020/12/30 08:02:12;;;;;;;17.63;6.75;;;;;;;-0.39;97.80;99504.38;5022357;28;20050;-53
2020/12/30 08:04:40;;;;;;;13.57;7.20;;;;;;;-0.20;96.65;99517.53;5024878;28;20076;-59
2020/12/30 08:07:08;;;;;;;15.52;7.80;;;;;;;-0.04;95.95;99516.16;5025625;28;20142;-54
2020/12/30 08:09:37;;;;;;;13.70;7.35;;;;;;;-0.13;95.87;99523.38;5024424;28;20060;-50
2020/12/30 08:12:09;;;;;;;15.50;8.73;;;;;;;0.02;94.70;99524.59;5016416;28;20057;-53
2020/12/30 08:14:39;;;;;;;11.60;7.50;;;;;;;0.20;94.71;99534.34;5026184;28;20574;-54
2020/12/30 08:17:08;;;;;;;13.52;9.02;;;;;;;2.39;87.83;99529.34;5010128;28;20046;-57
2020/12/30 08:19:49;;;;;;;13.38;6.00;;;;;;;4.69;75.52;99529.66;5018472;28;20088;-56
2020/12/30 08:22:16;;;;;;;9.05;4.70;;;;;;;6.32;68.49;99524.13;5010152;28;20037;-55
2020/12/30 08:24:44;;;;;;;9.85;4.85;;;;;;;7.07;64.76;99522.22;5020506;28;20053;-52
2020/12/30 08:27:15;;;;;;;10.32;4.63;;;;;;;7.44;62.48;99527.75;5025446;28;20052;-51
2020/12/30 08:29:56;;;;;;;8.13;4.65;;;;;;;7.92;60.21;99528.13;5027811;28;20179;-53
2020/12/30 08:32:35;;;;;;;9.23;4.50;;;;;;;7.41;60.87;99531.38;5011167;28;20125;-57
2020/12/30 08:35:34;;;;;;;12.30;4.03;;;;;;;7.03;60.65;99534.63;5005649;28;20533;-54
2020/12/30 08:38:12;;;;;;;9.68;4.18;;;;;;;6.96;61.43;99528.09;4990441;28;20054;-56
2020/12/30 08:40:41;;;;;;;7.30;4.00;;;;;;;5.41;66.57;99531.03;5022444;28;20163;-55
2020/12/30 08:43:11;;;;;;;9.43;4.65;;;;;;;4.21;71.38;99535.63;5006226;28;20049;-55
2020/12/30 08:45:49;;;;;;;7.97;3.83;;;;;;;4.05;72.44;99539.00;5019892;28;20072;-58
2020/12/30 08:48:17;;;;;;;9.73;3.90;;;;;;;4.12;73.11;99538.69;5016594;28;20073;-53
2020/12/30 08:50:45;;;;;;;9.43;3.95;;;;;;;4.32;72.09;99542.00;5007327;28;20050;-55
2020/12/30 08:53:12;;;;;;;6.43;3.92;;;;;;;4.69;71.00;99539.25;4997100;28;20060;-53
2020/12/30 08:55:39;;;;;;;6.47;3.97;;;;;;;4.98;69.40;99541.16;5017793;28;20571;-56
2020/12/30 08:58:06;;;;;;;7.18;4.18;;;;;;;5.14;69.15;99540.34;5016265;28;20046;-54
2020/12/30 09:00:35;;;;;;;7.80;3.70;;;;;;;6.20;65.38;99538.75;5006180;28;20054;-52
2020/12/30 09:03:12;;;;;;;8.75;4.32;;;;;;;6.19;65.25;99542.28;5014697;28;20078;-54
2020/12/30 09:05:39;;;;;;;7.35;3.90;;;;;;;4.76;68.74;99544.06;5026503;28;20042;-56
2020/12/30 09:08:18;;;;;;;7.80;3.70;;;;;;;3.26;75.05;99551.44;5025319;28;20046;-51
2020/12/30 09:10:47;;;;;;;9.38;3.95;;;;;;;2.71;77.98;99547.91;5042048;23;20060;-54
2020/12/30 09:13:18;;;;;;;6.22;3.83;;;;;;;2.34;79.66;99551.22;5004918;28;20525;-58
2020/12/30 09:15:47;;;;;;;8.88;3.88;;;;;;;2.20;81.23;99555.22;5014233;28;20442;-56
2020/12/30 09:18:14;;;;;;;8.20;4.03;;;;;;;1.99;82.30;99556.97;5020645;28;20337;-55
2020/12/30 09:20:41;;;;;;;11.25;5.45;;;;;;;1.97;83.00;99561.38;5027410;28;20257;-58
2020/12/30 09:23:08;;;;;;;8.75;4.22;;;;;;;2.01;82.87;99562.09;5027409;28;20034;-59
2020/12/30 09:25:38;;;;;;;10.60;5.95;;;;;;;1.95;83.57;99560.59;5030981;28;20133;-57
2020/12/30 09:28:21;;;;;;;11.18;5.40;;;;;;;1.93;84.55;99558.97;5020143;28;20067;-58
2020/12/30 09:30:52;;;;;;;9.02;4.65;;;;;;;2.10;83.26;99558.28;5021362;28;20057;-58
2020/12/30 09:33:21;;;;;;;9.13;4.78;;;;;;;2.16;83.01;99563.22;5026247;28;20060;-57
2020/12/30 09:35:48;;;;;;;8.70;4.55;;;;;;;2.23;82.69;99564.66;5028218;28;20140;-58
2020/12/30 09:38:17;;;;;;;8.50;4.85;;;;;;;2.20;82.91;99564.78;5025183;28;20698;-58
2020/12/30 09:40:45;;;;;;;8.25;4.38;;;;;;;2.17;83.14;99565.78;5029017;28;20057;-59
2020/12/30 09:43:17;;;;;;;10.52;5.18;;;;;;;2.31;82.37;99566.94;5025551;28;20148;-57
2020/12/30 09:45:45;;;;;;;11.18;5.25;;;;;;;2.29;82.70;99564.41;5029922;28;20060;-56
2020/12/30 09:48:19;;;;;;;10.20;4.78;;;;;;;2.18;83.33;99558.81;5020582;28;20080;-56
2020/12/30 09:50:47;;;;;;;9.60;5.07;;;;;;;2.28;82.92;99565.31;5020235;28;20049;-56
2020/12/30 09:53:14;;;;;;;11.38;5.20;;;;;;;2.14;83.46;99567.63;5018848;28;20049;-57
2020/12/30 09:55:48;;;;;;;10.73;5.30;;;;;;;2.23;83.58;99565.50;5033189;28;20052;-59
2020/12/30 09:58:14;;;;;;;8.20;4.53;;;;;;;2.38;82.98;99568.34;5020942;28;20057;-57
2020/12/30 10:00:42;;;;;;;7.95;5.10;;;;;;;2.34;82.61;99565.03;5027098;28;20096;-60
2020/12/30 10:03:08;;;;;;;9.88;5.43;;;;;;;2.38;82.79;99568.34;5017632;28;20042;-61
2020/12/30 10:05:35;;;;;;;11.90;4.88;;;;;;;2.38;82.91;99570.97;5024204;28;20077;-60
2020/12/30 10:08:02;;;;;;;8.23;4.65;;;;;;;2.42;83.13;99573.34;5026556;28;20053;-55
2020/12/30 10:10:31;;;;;;;8.40;5.15;;;;;;;2.51;82.44;99565.16;5014079;28;20057;-57
2020/12/30 10:12:58;;;;;;;10.85;5.80;;;;;;;2.67;81.55;99564.53;5025095;28;20096;-58
2020/12/30 10:15:27;;;;;;;14.98;5.68;;;;;;;2.70;81.14;99559.19;5022843;28;20050;-58
2020/12/30 10:17:54;;;;;;;8.18;5.00;;;;;;;2.61;81.70;99562.19;5023071;28;20064;-59
2020/12/30 10:20:20;;;;;;;7.95;4.70;;;;;;;2.60;81.85;99563.94;5025676;28;20080;-58
2020/12/30 10:22:47;;;;;;;10.98;5.38;;;;;;;2.58;81.78;99557.97;5012302;28;20212;-59
2020/12/30 10:25:20;;;;;;;9.32;4.47;;;;;;;2.66;81.58;99558.50;5007380;28;20056;-53
2020/12/30 10:27:47;;;;;;;7.47;4.57;;;;;;;2.64;81.64;99562.91;5023152;28;20091;-59
2020/12/30 10:30:13;;;;;;;13.20;4.45;;;;;;;2.66;81.73;99552.47;5020324;28;20053;-58
2020/12/30 10:32:40;;;;;;;8.25;5.03;;;;;;;2.69;81.95;99557.50;5022613;28;20033;-56
2020/12/30 10:35:07;;;;;;;19.17;5.47;;;;;;;2.73;81.32;99553.84;5007852;28;20414;-60
2020/12/30 10:37:35;;;;;;;12.45;4.50;;;;;;;2.82;80.87;99557.81;5028274;28;20077;-57
2020/12/30 10:40:03;;;;;;;9.48;4.78;;;;;;;2.81;80.88;99562.16;5025181;28;20679;-59
2020/12/30 10:42:30;;;;;;;7.55;4.57;;;;;;;2.78;80.91;99559.69;5026119;28;20373;-59
2020/12/30 10:44:57;;;;;;;8.38;4.80;;;;;;;2.72;81.88;99565.16;5018060;28;20391;-57
2020/12/30 10:47:23;;;;;;;12.15;4.82;;;;;;;2.58;81.99;99573.56;5021421;28;20060;-55
2020/12/30 10:49:50;;;;;;;9.50;4.38;;;;;;;2.63;82.18;99560.38;5032984;28;20069;-55
2020/12/30 10:52:17;;;;;;;8.60;4.47;;;;;;;2.85;81.64;99562.88;4999278;28;20049;-54
2020/12/30 10:54:46;;;;;;;8.25;5.03;;;;;;;2.85;80.91;99568.09;5020855;28;20525;-58
2020/12/30 10:57:13;;;;;;;11.32;4.85;;;;;;;2.89;81.43;99562.69;5018567;28;20093;-54
2020/12/30 10:59:40;;;;;;;10.18;5.07;;;;;;;2.96;81.29;99568.44;5005151;28;20045;-58
2020/12/30 11:02:06;;;;;;;8.02;4.05;;;;;;;2.97;80.14;99559.72;5018491;28;20057;-59
2020/12/30 11:04:33;;;;;;;10.07;5.03;;;;;;;2.91;80.91;99563.44;5020864;28;20100;-55
2020/12/30 11:07:02;;;;;;;8.02;4.05;;;;;;;3.10;81.24;99563.44;5027529;28;20053;-58
2020/12/30 11:09:29;;;;;;;10.40;4.20;;;;;;;2.95;80.37;99554.59;5015673;28;20046;-57
2020/12/30 11:11:56;;;;;;;9.02;4.78;;;;;;;2.94;81.03;99552.91;5014030;28;20119;-57
2020/12/30 11:14:24;;;;;;;6.07;4.15;;;;;;;3.03;82.79;99557.69;5020381;28;20058;-58
2020/12/30 11:16:51;;;;;;;7.80;4.55;;;;;;;2.99;81.15;99550.94;5022979;28;20061;-56
2020/12/30 11:19:18;;;;;;;8.05;4.43;;;;;;;3.12;80.99;99550.41;5012490;28;20081;-57
2020/12/30 11:21:54;;;;;;;13.20;4.90;;;;;;;3.08;80.36;99547.09;5018546;28;20406;-59
2020/12/30 11:24:21;;;;;;;8.05;4.55;;;;;;;3.03;80.74;99543.84;5020231;28;20446;-56
2020/12/30 11:26:48;;;;;;;7.82;5.18;;;;;;;3.06;80.10;99546.31;5025412;28;20056;-55
2020/12/30 11:29:15;;;;;;;11.30;5.35;;;;;;;3.05;80.56;99547.22;5019110;28;20045;-57
2020/12/30 11:31:42;;;;;;;11.65;5.25;;;;;;;3.07;80.81;99541.97;5026961;28;20064;-57
2020/12/30 11:34:10;;;;;;;16.30;7.20;;;;;;;3.16;81.46;99541.56;5025583;28;20037;-57
2020/12/30 11:36:37;;;;;;;9.82;4.63;;;;;;;3.16;80.55;99545.00;5002900;28;20058;-57
2020/12/30 11:39:04;;;;;;;7.97;4.70;;;;;;;3.12;80.92;99543.44;5023592;28;20447;-58
2020/12/30 11:41:31;;;;;;;8.77;4.43;;;;;;;3.20;80.30;99538.75;5025553;28;20037;-59
2020/12/30 11:43:58;;;;;;;7.07;4.43;;;;;;;3.10;81.30;99540.06;5006878;28;20041;-58
2020/12/30 11:46:25;;;;;;;8.95;4.60;;;;;;;3.16;81.18;99541.56;5023469;28;20111;-56